Terminal Aerodrome Forecast
Issued by NWS

Home | Current Version | Previous Version | Graphics & Text | Print | Product List | Glossary On
Versions: 1 2 3 4 5 6 7 8 9 10 11 12 13 14 15 16
000
FTUS43 KICT 252324
TAFCNU
TAF
KCNU 252324Z 2600/2624 15010KT P6SM SKC
     FM260700 14007KT P6SM SCT250 WS020/18040KT
     FM261300 17010KT P6SM SCT035
     FM261900 35010KT P6SM BKN035=

USA.gov is the U.S. government's official web portal to all federal, state and local government web resources and services.